sensor_id;sensor_type;location;lat;lon;timestamp;P1;durP1;ratioP1;P2;durP2;ratioP2
7231;SDS011;3657;49.630;11.018;2023-04-19T00:00:14;11.17;;;10.67;;
7231;SDS011;3657;49.630;11.018;2023-04-19T00:02:41;10.70;;;10.30;;
7231;SDS011;3657;49.630;11.018;2023-04-19T00:05:08;10.77;;;10.37;;
7231;SDS011;3657;49.630;11.018;2023-04-19T00:07:35;11.60;;;11.20;;
7231;SDS011;3657;49.630;11.018;2023-04-19T00:10:02;10.93;;;10.53;;
7231;SDS011;3657;49.630;11.018;2023-04-19T00:12:29;11.57;;;11.07;;
7231;SDS011;3657;49.630;11.018;2023-04-19T00:14:56;11.57;;;11.07;;
7231;SDS011;3657;49.630;11.018;2023-04-19T00:17:24;11.90;;;11.40;;
7231;SDS011;3657;49.630;11.018;2023-04-19T00:19:51;12.20;;;11.80;;
7231;SDS011;3657;49.630;11.018;2023-04-19T00:22:17;11.87;;;11.20;;
7231;SDS011;3657;49.630;11.018;2023-04-19T00:24:44;11.50;;;11.00;;
7231;SDS011;3657;49.630;11.018;2023-04-19T00:27:11;11.83;;;11.33;;
7231;SDS011;3657;49.630;11.018;2023-04-19T00:29:37;11.50;;;11.10;;
7231;SDS011;3657;49.630;11.018;2023-04-19T00:32:04;10.80;;;10.40;;
7231;SDS011;3657;49.630;11.018;2023-04-19T00:34:32;10.60;;;10.10;;
7231;SDS011;3657;49.630;11.018;2023-04-19T00:36:59;10.50;;;10.10;;
7231;SDS011;3657;49.630;11.018;2023-04-19T00:39:25;10.80;;;10.30;;
7231;SDS011;3657;49.630;11.018;2023-04-19T00:41:52;11.23;;;10.83;;
7231;SDS011;3657;49.630;11.018;2023-04-19T00:44:21;11.83;;;11.30;;
7231;SDS011;3657;49.630;11.018;2023-04-19T00:46:48;11.27;;;10.77;;
7231;SDS011;3657;49.630;11.018;2023-04-19T00:49:15;12.03;;;11.53;;
7231;SDS011;3657;49.630;11.018;2023-04-19T00:51:43;10.87;;;10.47;;
7231;SDS011;3657;49.630;11.018;2023-04-19T00:54:10;11.53;;;10.93;;
7231;SDS011;3657;49.630;11.018;2023-04-19T00:56:38;10.97;;;10.57;;
7231;SDS011;3657;49.630;11.018;2023-04-19T00:59:05;10.50;;;10.10;;
7231;SDS011;3657;49.630;11.018;2023-04-19T01:01:32;11.37;;;10.87;;
7231;SDS011;3657;49.630;11.018;2023-04-19T01:03:59;13.50;;;12.80;;
7231;SDS011;3657;49.630;11.018;2023-04-19T01:06:27;12.90;;;12.30;;
7231;SDS011;3657;49.630;11.018;2023-04-19T01:08:56;12.13;;;11.53;;
7231;SDS011;3657;49.630;11.018;2023-04-19T01:11:23;11.10;;;10.70;;
7231;SDS011;3657;49.630;11.018;2023-04-19T01:13:50;11.57;;;11.07;;
7231;SDS011;3657;49.630;11.018;2023-04-19T01:16:17;11.83;;;11.33;;
7231;SDS011;3657;49.630;11.018;2023-04-19T01:18:44;12.83;;;12.10;;
7231;SDS011;3657;49.630;11.018;2023-04-19T01:21:10;11.90;;;11.30;;
7231;SDS011;3657;49.630;11.018;2023-04-19T01:23:39;12.17;;;11.67;;
7231;SDS011;3657;49.630;11.018;2023-04-19T01:26:06;11.77;;;11.27;;
7231;SDS011;3657;49.630;11.018;2023-04-19T01:28:32;13.90;;;13.20;;
7231;SDS011;3657;49.630;11.018;2023-04-19T01:30:59;15.33;;;14.43;;
7231;SDS011;3657;49.630;11.018;2023-04-19T01:33:25;13.97;;;13.27;;
7231;SDS011;3657;49.630;11.018;2023-04-19T01:35:52;12.13;;;11.50;;
7231;SDS011;3657;49.630;11.018;2023-04-19T01:38:19;12.30;;;11.73;;
7231;SDS011;3657;49.630;11.018;2023-04-19T01:40:47;11.93;;;11.43;;
7231;SDS011;3657;49.630;11.018;2023-04-19T01:43:15;10.80;;;10.30;;
7231;SDS011;3657;49.630;11.018;2023-04-19T01:45:42;10.87;;;10.37;;
7231;SDS011;3657;49.630;11.018;2023-04-19T01:48:09;11.47;;;10.97;;
7231;SDS011;3657;49.630;11.018;2023-04-19T01:50:36;11.70;;;11.10;;
7231;SDS011;3657;49.630;11.018;2023-04-19T01:53:02;10.93;;;10.50;;
7231;SDS011;3657;49.630;11.018;2023-04-19T01:55:29;11.47;;;10.97;;
7231;SDS011;3657;49.630;11.018;2023-04-19T01:57:57;11.60;;;11.10;;
7231;SDS011;3657;49.630;11.018;2023-04-19T02:00:24;10.70;;;10.30;;
7231;SDS011;3657;49.630;11.018;2023-04-19T02:02:50;12.07;;;11.50;;
7231;SDS011;3657;49.630;11.018;2023-04-19T02:05:17;12.23;;;11.63;;
7231;SDS011;3657;49.630;11.018;2023-04-19T02:07:44;14.03;;;13.33;;
7231;SDS011;3657;49.630;11.018;2023-04-19T02:10:10;11.33;;;10.90;;
7231;SDS011;3657;49.630;11.018;2023-04-19T02:12:37;11.70;;;11.20;;
7231;SDS011;3657;49.630;11.018;2023-04-19T02:15:06;13.07;;;12.37;;
7231;SDS011;3657;49.630;11.018;2023-04-19T02:17:33;12.93;;;12.23;;
7231;SDS011;3657;49.630;11.018;2023-04-19T02:20:00;13.27;;;12.60;;
7231;SDS011;3657;49.630;11.018;2023-04-19T02:22:28;13.33;;;12.63;;
7231;SDS011;3657;49.630;11.018;2023-04-19T02:24:55;10.57;;;10.17;;
7231;SDS011;3657;49.630;11.018;2023-04-19T02:27:21;11.77;;;11.30;;
7231;SDS011;3657;49.630;11.018;2023-04-19T02:29:48;10.90;;;10.47;;
7231;SDS011;3657;49.630;11.018;2023-04-19T02:32:16;10.53;;;9.93;;
7231;SDS011;3657;49.630;11.018;2023-04-19T02:34:43;11.10;;;10.50;;
7231;SDS011;3657;49.630;11.018;2023-04-19T02:37:09;11.00;;;10.50;;
7231;SDS011;3657;49.630;11.018;2023-04-19T02:39:36;11.37;;;10.87;;
7231;SDS011;3657;49.630;11.018;2023-04-19T02:42:04;11.83;;;11.33;;
7231;SDS011;3657;49.630;11.018;2023-04-19T02:44:30;11.57;;;10.97;;
7231;SDS011;3657;49.630;11.018;2023-04-19T02:46:57;11.13;;;10.63;;
7231;SDS011;3657;49.630;11.018;2023-04-19T02:49:25;10.83;;;10.37;;
7231;SDS011;3657;49.630;11.018;2023-04-19T02:51:51;11.40;;;10.90;;
7231;SDS011;3657;49.630;11.018;2023-04-19T02:54:18;11.10;;;10.50;;
7231;SDS011;3657;49.630;11.018;2023-04-19T02:56:45;14.67;;;13.57;;
7231;SDS011;3657;49.630;11.018;2023-04-19T02:59:11;10.80;;;10.37;;
7231;SDS011;3657;49.630;11.018;2023-04-19T03:01:38;10.30;;;10.00;;
7231;SDS011;3657;49.630;11.018;2023-04-19T03:04:05;10.80;;;10.30;;
7231;SDS011;3657;49.630;11.018;2023-04-19T03:06:33;11.30;;;10.80;;
7231;SDS011;3657;49.630;11.018;2023-04-19T03:09:00;10.57;;;10.17;;
7231;SDS011;3657;49.630;11.018;2023-04-19T03:11:27;12.20;;;11.70;;
7231;SDS011;3657;49.630;11.018;2023-04-19T03:13:53;11.53;;;11.07;;
7231;SDS011;3657;49.630;11.018;2023-04-19T03:16:20;11.03;;;10.63;;
7231;SDS011;3657;49.630;11.018;2023-04-19T03:18:47;11.00;;;10.60;;
7231;SDS011;3657;49.630;11.018;2023-04-19T03:21:13;10.50;;;10.10;;
7231;SDS011;3657;49.630;11.018;2023-04-19T03:23:41;10.90;;;10.47;;
7231;SDS011;3657;49.630;11.018;2023-04-19T03:26:08;11.03;;;10.50;;
7231;SDS011;3657;49.630;11.018;2023-04-19T03:28:34;11.60;;;11.00;;
7231;SDS011;3657;49.630;11.018;2023-04-19T03:31:01;10.53;;;10.13;;
7231;SDS011;3657;49.630;11.018;2023-04-19T03:33:28;12.80;;;12.20;;
7231;SDS011;3657;49.630;11.018;2023-04-19T03:35:54;10.90;;;10.30;;
7231;SDS011;3657;49.630;11.018;2023-04-19T03:38:21;11.37;;;10.87;;
7231;SDS011;3657;49.630;11.018;2023-04-19T03:40:49;14.93;;;14.03;;
7231;SDS011;3657;49.630;11.018;2023-04-19T03:43:16;10.90;;;10.50;;
7231;SDS011;3657;49.630;11.018;2023-04-19T03:45:43;10.93;;;10.50;;
7231;SDS011;3657;49.630;11.018;2023-04-19T03:48:09;11.00;;;10.60;;
7231;SDS011;3657;49.630;11.018;2023-04-19T03:50:36;10.27;;;9.87;;
7231;SDS011;3657;49.630;11.018;2023-04-19T03:53:03;10.53;;;10.00;;
7231;SDS011;3657;49.630;11.018;2023-04-19T03:55:29;13.87;;;13.20;;
7231;SDS011;3657;49.630;11.018;2023-04-19T03:57:57;12.33;;;11.77;;
7231;SDS011;3657;49.630;11.018;2023-04-19T04:00:24;11.53;;;10.93;;
7231;SDS011;3657;49.630;11.018;2023-04-19T04:02:51;12.27;;;11.67;;
7231;SDS011;3657;49.630;11.018;2023-04-19T04:05:18;11.30;;;10.70;;
7231;SDS011;3657;49.630;11.018;2023-04-19T04:07:45;10.57;;;10.17;;
7231;SDS011;3657;49.630;11.018;2023-04-19T04:10:11;10.70;;;10.30;;
7231;SDS011;3657;49.630;11.018;2023-04-19T04:12:38;11.50;;;11.00;;
7231;SDS011;3657;49.630;11.018;2023-04-19T04:15:07;10.83;;;10.33;;
7231;SDS011;3657;49.630;11.018;2023-04-19T04:17:34;15.47;;;14.33;;
7231;SDS011;3657;49.630;11.018;2023-04-19T04:20:01;15.10;;;14.20;;
7231;SDS011;3657;49.630;11.018;2023-04-19T04:22:29;12.03;;;11.53;;
7231;SDS011;3657;49.630;11.018;2023-04-19T04:24:56;14.17;;;13.33;;
7231;SDS011;3657;49.630;11.018;2023-04-19T04:27:25;10.90;;;10.50;;
7231;SDS011;3657;49.630;11.018;2023-04-19T04:29:52;15.67;;;14.80;;
7231;SDS011;3657;49.630;11.018;2023-04-19T04:32:19;10.47;;;10.07;;
7231;SDS011;3657;49.630;11.018;2023-04-19T04:34:47;10.50;;;10.10;;
7231;SDS011;3657;49.630;11.018;2023-04-19T04:37:13;11.23;;;10.83;;
7231;SDS011;3657;49.630;11.018;2023-04-19T04:39:41;16.67;;;15.67;;
7231;SDS011;3657;49.630;11.018;2023-04-19T04:42:08;18.47;;;17.07;;
7231;SDS011;3657;49.630;11.018;2023-04-19T04:44:36;14.37;;;13.60;;
7231;SDS011;3657;49.630;11.018;2023-04-19T04:47:03;17.73;;;16.63;;
7231;SDS011;3657;49.630;11.018;2023-04-19T04:49:31;20.80;;;19.43;;
7231;SDS011;3657;49.630;11.018;2023-04-19T04:51:58;20.27;;;18.97;;
7231;SDS011;3657;49.630;11.018;2023-04-19T04:54:25;21.93;;;20.40;;
7231;SDS011;3657;49.630;11.018;2023-04-19T04:56:51;18.87;;;17.50;;
7231;SDS011;3657;49.630;11.018;2023-04-19T04:59:18;12.80;;;12.20;;
7231;SDS011;3657;49.630;11.018;2023-04-19T05:01:44;18.20;;;17.03;;
7231;SDS011;3657;49.630;11.018;2023-04-19T05:04:11;12.43;;;11.90;;
7231;SDS011;3657;49.630;11.018;2023-04-19T05:06:39;20.20;;;18.80;;
7231;SDS011;3657;49.630;11.018;2023-04-19T05:09:06;18.77;;;17.50;;
7231;SDS011;3657;49.630;11.018;2023-04-19T05:11:32;16.50;;;15.33;;
7231;SDS011;3657;49.630;11.018;2023-04-19T05:13:59;13.90;;;13.30;;
7231;SDS011;3657;49.630;11.018;2023-04-19T05:16:26;12.33;;;11.83;;
7231;SDS011;3657;49.630;11.018;2023-04-19T05:18:53;11.53;;;11.10;;
7231;SDS011;3657;49.630;11.018;2023-04-19T05:21:20;17.57;;;16.53;;
7231;SDS011;3657;49.630;11.018;2023-04-19T05:23:48;15.60;;;14.73;;
7231;SDS011;3657;49.630;11.018;2023-04-19T05:26:17;14.13;;;13.33;;
7231;SDS011;3657;49.630;11.018;2023-04-19T05:28:44;11.90;;;11.40;;
7231;SDS011;3657;49.630;11.018;2023-04-19T05:31:11;13.27;;;12.50;;
7231;SDS011;3657;49.630;11.018;2023-04-19T05:33:38;11.10;;;10.50;;
7231;SDS011;3657;49.630;11.018;2023-04-19T05:36:04;13.97;;;13.07;;
7231;SDS011;3657;49.630;11.018;2023-04-19T05:38:31;12.90;;;12.40;;
7231;SDS011;3657;49.630;11.018;2023-04-19T05:40:59;15.57;;;14.63;;
7231;SDS011;3657;49.630;11.018;2023-04-19T05:43:26;11.93;;;11.43;;
7231;SDS011;3657;49.630;11.018;2023-04-19T05:45:53;20.63;;;18.93;;
7231;SDS011;3657;49.630;11.018;2023-04-19T05:48:20;22.37;;;20.40;;
7231;SDS011;3657;49.630;11.018;2023-04-19T05:50:46;21.70;;;19.83;;
7231;SDS011;3657;49.630;11.018;2023-04-19T05:53:13;13.37;;;12.77;;
7231;SDS011;3657;49.630;11.018;2023-04-19T05:55:40;22.13;;;20.23;;
7231;SDS011;3657;49.630;11.018;2023-04-19T05:58:08;21.03;;;19.47;;
7231;SDS011;3657;49.630;11.018;2023-04-19T06:00:34;18.80;;;17.60;;
7231;SDS011;3657;49.630;11.018;2023-04-19T06:03:02;12.60;;;11.97;;
7231;SDS011;3657;49.630;11.018;2023-04-19T06:05:28;13.30;;;12.57;;
7231;SDS011;3657;49.630;11.018;2023-04-19T06:07:55;22.33;;;20.63;;
7231;SDS011;3657;49.630;11.018;2023-04-19T06:10:22;17.90;;;16.57;;
7231;SDS011;3657;49.630;11.018;2023-04-19T06:12:49;21.67;;;19.97;;
7231;SDS011;3657;49.630;11.018;2023-04-19T06:15:16;20.90;;;19.27;;
7231;SDS011;3657;49.630;11.018;2023-04-19T06:17:43;13.17;;;12.47;;
7231;SDS011;3657;49.630;11.018;2023-04-19T06:20:10;12.87;;;12.33;;
7231;SDS011;3657;49.630;11.018;2023-04-19T06:22:40;11.57;;;11.07;;
7231;SDS011;3657;49.630;11.018;2023-04-19T06:25:07;13.33;;;12.60;;
7231;SDS011;3657;49.630;11.018;2023-04-19T06:27:34;17.70;;;16.47;;
7231;SDS011;3657;49.630;11.018;2023-04-19T06:30:01;15.70;;;14.70;;
7231;SDS011;3657;49.630;11.018;2023-04-19T06:32:29;23.63;;;21.50;;
7231;SDS011;3657;49.630;11.018;2023-04-19T06:34:55;22.37;;;20.53;;
7231;SDS011;3657;49.630;11.018;2023-04-19T06:37:22;24.17;;;22.17;;
7231;SDS011;3657;49.630;11.018;2023-04-19T06:39:49;23.70;;;21.30;;
7231;SDS011;3657;49.630;11.018;2023-04-19T06:42:15;29.53;;;26.63;;
7231;SDS011;3657;49.630;11.018;2023-04-19T06:44:43;28.40;;;25.87;;
7231;SDS011;3657;49.630;11.018;2023-04-19T06:47:10;24.30;;;22.03;;
7231;SDS011;3657;49.630;11.018;2023-04-19T06:49:38;30.27;;;27.33;;
7231;SDS011;3657;49.630;11.018;2023-04-19T06:52:05;24.90;;;22.80;;
7231;SDS011;3657;49.630;11.018;2023-04-19T06:54:31;27.03;;;24.67;;
7231;SDS011;3657;49.630;11.018;2023-04-19T06:56:58;25.67;;;23.53;;
7231;SDS011;3657;49.630;11.018;2023-04-19T06:59:26;25.43;;;23.20;;
7231;SDS011;3657;49.630;11.018;2023-04-19T07:01:55;26.60;;;24.20;;
7231;SDS011;3657;49.630;11.018;2023-04-19T07:04:22;27.00;;;24.60;;
7231;SDS011;3657;49.630;11.018;2023-04-19T07:06:50;27.17;;;24.67;;
7231;SDS011;3657;49.630;11.018;2023-04-19T07:09:17;31.10;;;28.17;;
7231;SDS011;3657;49.630;11.018;2023-04-19T07:11:43;31.80;;;28.57;;
7231;SDS011;3657;49.630;11.018;2023-04-19T07:14:11;34.73;;;31.03;;
7231;SDS011;3657;49.630;11.018;2023-04-19T07:16:38;32.90;;;29.63;;
7231;SDS011;3657;49.630;11.018;2023-04-19T07:19:04;32.50;;;29.17;;
7231;SDS011;3657;49.630;11.018;2023-04-19T07:21:31;35.90;;;31.97;;
7231;SDS011;3657;49.630;11.018;2023-04-19T07:24:00;35.20;;;31.40;;
7231;SDS011;3657;49.630;11.018;2023-04-19T07:26:27;35.93;;;32.20;;
7231;SDS011;3657;49.630;11.018;2023-04-19T07:28:53;35.17;;;31.60;;
7231;SDS011;3657;49.630;11.018;2023-04-19T07:31:20;36.00;;;32.27;;
7231;SDS011;3657;49.630;11.018;2023-04-19T07:33:49;37.63;;;33.87;;
7231;SDS011;3657;49.630;11.018;2023-04-19T07:36:15;35.63;;;32.03;;
7231;SDS011;3657;49.630;11.018;2023-04-19T07:38:42;36.23;;;32.63;;
7231;SDS011;3657;49.630;11.018;2023-04-19T07:41:10;37.93;;;34.10;;
7231;SDS011;3657;49.630;11.018;2023-04-19T07:43:37;34.40;;;31.00;;
7231;SDS011;3657;49.630;11.018;2023-04-19T07:46:07;34.63;;;31.13;;
7231;SDS011;3657;49.630;11.018;2023-04-19T07:48:34;33.30;;;30.20;;
7231;SDS011;3657;49.630;11.018;2023-04-19T07:51:06;34.60;;;31.07;;
7231;SDS011;3657;49.630;11.018;2023-04-19T07:53:34;34.37;;;30.83;;
7231;SDS011;3657;49.630;11.018;2023-04-19T07:56:00;34.67;;;31.37;;
7231;SDS011;3657;49.630;11.018;2023-04-19T07:58:28;33.30;;;30.10;;
7231;SDS011;3657;49.630;11.018;2023-04-19T08:00:55;35.30;;;31.80;;
7231;SDS011;3657;49.630;11.018;2023-04-19T08:03:22;32.87;;;29.60;;
7231;SDS011;3657;49.630;11.018;2023-04-19T08:05:49;32.43;;;29.37;;
7231;SDS011;3657;49.630;11.018;2023-04-19T08:08:15;32.43;;;29.47;;
7231;SDS011;3657;49.630;11.018;2023-04-19T08:10:42;31.43;;;28.53;;
7231;SDS011;3657;49.630;11.018;2023-04-19T08:13:09;32.37;;;29.37;;
7231;SDS011;3657;49.630;11.018;2023-04-19T08:15:37;32.17;;;29.13;;
7231;SDS011;3657;49.630;11.018;2023-04-19T08:18:03;32.40;;;29.60;;
7231;SDS011;3657;49.630;11.018;2023-04-19T08:20:30;34.30;;;31.10;;
7231;SDS011;3657;49.630;11.018;2023-04-19T08:22:57;33.93;;;30.77;;
7231;SDS011;3657;49.630;11.018;2023-04-19T08:25:24;33.37;;;30.30;;
7231;SDS011;3657;49.630;11.018;2023-04-19T08:28:06;31.87;;;28.97;;
7231;SDS011;3657;49.630;11.018;2023-04-19T08:30:47;30.20;;;27.70;;
7231;SDS011;3657;49.630;11.018;2023-04-19T08:33:14;29.43;;;26.83;;
7231;SDS011;3657;49.630;11.018;2023-04-19T08:35:41;28.80;;;26.37;;
7231;SDS011;3657;49.630;11.018;2023-04-19T08:38:09;27.73;;;25.43;;
7231;SDS011;3657;49.630;11.018;2023-04-19T08:40:36;27.07;;;24.90;;
7231;SDS011;3657;49.630;11.018;2023-04-19T08:43:06;26.70;;;24.43;;
7231;SDS011;3657;49.630;11.018;2023-04-19T08:45:33;26.00;;;23.97;;
7231;SDS011;3657;49.630;11.018;2023-04-19T08:48:02;26.20;;;23.90;;
7231;SDS011;3657;49.630;11.018;2023-04-19T08:50:30;23.23;;;21.53;;
7231;SDS011;3657;49.630;11.018;2023-04-19T08:52:57;24.13;;;22.27;;
7231;SDS011;3657;49.630;11.018;2023-04-19T08:55:25;23.87;;;22.17;;
7231;SDS011;3657;49.630;11.018;2023-04-19T08:57:53;23.30;;;21.40;;
7231;SDS011;3657;49.630;11.018;2023-04-19T09:00:21;23.47;;;21.77;;
7231;SDS011;3657;49.630;11.018;2023-04-19T09:02:48;24.73;;;22.90;;
7231;SDS011;3657;49.630;11.018;2023-04-19T09:05:17;25.67;;;23.63;;
7231;SDS011;3657;49.630;11.018;2023-04-19T09:07:45;25.23;;;23.27;;
7231;SDS011;3657;49.630;11.018;2023-04-19T09:10:12;24.57;;;22.67;;
7231;SDS011;3657;49.630;11.018;2023-04-19T09:12:40;24.90;;;22.67;;
7231;SDS011;3657;49.630;11.018;2023-04-19T09:15:07;23.43;;;21.50;;
7231;SDS011;3657;49.630;11.018;2023-04-19T09:17:34;23.40;;;21.60;;
7231;SDS011;3657;49.630;11.018;2023-04-19T09:20:02;23.80;;;21.80;;
7231;SDS011;3657;49.630;11.018;2023-04-19T09:22:30;23.33;;;21.63;;
7231;SDS011;3657;49.630;11.018;2023-04-19T09:24:58;23.47;;;21.57;;
7231;SDS011;3657;49.630;11.018;2023-04-19T09:27:27;22.93;;;20.97;;
7231;SDS011;3657;49.630;11.018;2023-04-19T09:29:54;23.30;;;21.63;;
7231;SDS011;3657;49.630;11.018;2023-04-19T09:32:22;23.50;;;21.57;;
7231;SDS011;3657;49.630;11.018;2023-04-19T09:34:49;23.53;;;21.70;;
7231;SDS011;3657;49.630;11.018;2023-04-19T09:37:18;22.87;;;21.10;;
7231;SDS011;3657;49.630;11.018;2023-04-19T09:39:45;21.67;;;20.03;;
7231;SDS011;3657;49.630;11.018;2023-04-19T09:42:12;20.97;;;19.47;;
7231;SDS011;3657;49.630;11.018;2023-04-19T09:44:39;20.33;;;18.63;;
7231;SDS011;3657;49.630;11.018;2023-04-19T09:47:20;19.90;;;18.40;;
7231;SDS011;3657;49.630;11.018;2023-04-19T09:49:48;17.83;;;16.63;;
7231;SDS011;3657;49.630;11.018;2023-04-19T09:52:29;20.17;;;18.77;;
7231;SDS011;3657;49.630;11.018;2023-04-19T09:54:59;19.30;;;17.90;;
7231;SDS011;3657;49.630;11.018;2023-04-19T09:57:28;17.77;;;16.77;;
7231;SDS011;3657;49.630;11.018;2023-04-19T09:59:54;16.77;;;15.77;;
7231;SDS011;3657;49.630;11.018;2023-04-19T10:02:21;18.43;;;17.30;;
7231;SDS011;3657;49.630;11.018;2023-04-19T10:04:49;18.77;;;17.47;;
7231;SDS011;3657;49.630;11.018;2023-04-19T10:07:16;18.40;;;17.10;;
7231;SDS011;3657;49.630;11.018;2023-04-19T10:09:43;19.93;;;18.37;;
7231;SDS011;3657;49.630;11.018;2023-04-19T10:12:13;18.53;;;17.27;;
7231;SDS011;3657;49.630;11.018;2023-04-19T10:14:41;17.73;;;16.63;;
7231;SDS011;3657;49.630;11.018;2023-04-19T10:17:08;17.47;;;16.10;;
7231;SDS011;3657;49.630;11.018;2023-04-19T10:19:34;20.10;;;18.43;;
7231;SDS011;3657;49.630;11.018;2023-04-19T10:22:03;16.97;;;15.70;;
7231;SDS011;3657;49.630;11.018;2023-04-19T10:24:32;16.40;;;15.40;;
7231;SDS011;3657;49.630;11.018;2023-04-19T10:27:05;17.37;;;16.33;;
7231;SDS011;3657;49.630;11.018;2023-04-19T10:29:54;15.57;;;14.67;;
7231;SDS011;3657;49.630;11.018;2023-04-19T10:32:22;14.83;;;13.83;;
7231;SDS011;3657;49.630;11.018;2023-04-19T10:34:50;13.20;;;12.60;;
7231;SDS011;3657;49.630;11.018;2023-04-19T10:37:20;13.50;;;12.80;;
7231;SDS011;3657;49.630;11.018;2023-04-19T10:39:48;14.17;;;13.27;;
7231;SDS011;3657;49.630;11.018;2023-04-19T10:42:15;13.70;;;13.00;;
7231;SDS011;3657;49.630;11.018;2023-04-19T10:47:44;14.40;;;13.53;;
7231;SDS011;3657;49.630;11.018;2023-04-19T10:50:11;13.37;;;12.73;;
7231;SDS011;3657;49.630;11.018;2023-04-19T10:52:41;13.77;;;13.07;;
7231;SDS011;3657;49.630;11.018;2023-04-19T10:55:07;12.13;;;11.67;;
7231;SDS011;3657;49.630;11.018;2023-04-19T11:00:27;12.97;;;12.23;;
7231;SDS011;3657;49.630;11.018;2023-04-19T11:02:57;12.90;;;12.20;;
7231;SDS011;3657;49.630;11.018;2023-04-19T11:05:25;12.23;;;11.70;;
7231;SDS011;3657;49.630;11.018;2023-04-19T11:07:51;12.67;;;12.10;;
7231;SDS011;3657;49.630;11.018;2023-04-19T11:10:26;12.50;;;11.97;;
7231;SDS011;3657;49.630;11.018;2023-04-19T11:12:54;11.60;;;11.20;;
7231;SDS011;3657;49.630;11.018;2023-04-19T11:15:21;10.57;;;10.17;;
7231;SDS011;3657;49.630;11.018;2023-04-19T11:17:49;10.97;;;10.47;;
7231;SDS011;3657;49.630;11.018;2023-04-19T11:20:20;10.13;;;9.77;;
7231;SDS011;3657;49.630;11.018;2023-04-19T11:22:48;10.67;;;10.27;;
7231;SDS011;3657;49.630;11.018;2023-04-19T11:25:15;10.37;;;10.07;;
7231;SDS011;3657;49.630;11.018;2023-04-19T11:27:43;10.00;;;9.60;;
7231;SDS011;3657;49.630;11.018;2023-04-19T11:30:12;9.17;;;8.87;;
7231;SDS011;3657;49.630;11.018;2023-04-19T11:32:44;9.73;;;9.43;;
7231;SDS011;3657;49.630;11.018;2023-04-19T11:35:12;8.27;;;7.80;;
7231;SDS011;3657;49.630;11.018;2023-04-19T11:37:41;7.50;;;7.30;;
7231;SDS011;3657;49.630;11.018;2023-04-19T11:40:07;7.43;;;7.23;;
7231;SDS011;3657;49.630;11.018;2023-04-19T11:42:39;7.20;;;6.90;;
7231;SDS011;3657;49.630;11.018;2023-04-19T11:45:06;6.97;;;6.77;;
7231;SDS011;3657;49.630;11.018;2023-04-19T11:47:34;6.30;;;6.00;;
7231;SDS011;3657;49.630;11.018;2023-04-19T11:50:30;6.87;;;6.47;;
7231;SDS011;3657;49.630;11.018;2023-04-19T11:53:03;5.70;;;5.50;;
7231;SDS011;3657;49.630;11.018;2023-04-19T11:55:35;5.97;;;5.73;;
7231;SDS011;3657;49.630;11.018;2023-04-19T11:58:02;6.57;;;6.37;;
7231;SDS011;3657;49.630;11.018;2023-04-19T12:00:33;5.63;;;5.43;;
7231;SDS011;3657;49.630;11.018;2023-04-19T12:03:00;5.90;;;5.60;;
7231;SDS011;3657;49.630;11.018;2023-04-19T12:05:28;5.30;;;5.10;;
7231;SDS011;3657;49.630;11.018;2023-04-19T12:08:00;5.30;;;5.07;;
7231;SDS011;3657;49.630;11.018;2023-04-19T12:10:27;5.10;;;5.00;;
7231;SDS011;3657;49.630;11.018;2023-04-19T12:12:54;5.83;;;5.53;;
7231;SDS011;3657;49.630;11.018;2023-04-19T12:15:21;5.13;;;5.03;;
7231;SDS011;3657;49.630;11.018;2023-04-19T12:17:54;5.30;;;5.20;;
7231;SDS011;3657;49.630;11.018;2023-04-19T12:20:31;5.50;;;5.30;;
7231;SDS011;3657;49.630;11.018;2023-04-19T12:23:00;5.40;;;5.20;;
7231;SDS011;3657;49.630;11.018;2023-04-19T12:25:28;5.57;;;5.20;;
7231;SDS011;3657;49.630;11.018;2023-04-19T12:27:55;5.43;;;5.27;;
7231;SDS011;3657;49.630;11.018;2023-04-19T12:30:22;5.20;;;5.07;;
7231;SDS011;3657;49.630;11.018;2023-04-19T12:32:49;5.40;;;5.20;;
7231;SDS011;3657;49.630;11.018;2023-04-19T12:35:19;5.03;;;4.83;;
7231;SDS011;3657;49.630;11.018;2023-04-19T12:37:46;5.17;;;4.97;;
7231;SDS011;3657;49.630;11.018;2023-04-19T12:40:14;4.70;;;4.57;;
7231;SDS011;3657;49.630;11.018;2023-04-19T12:42:40;4.70;;;4.60;;
7231;SDS011;3657;49.630;11.018;2023-04-19T12:45:07;4.93;;;4.73;;
7231;SDS011;3657;49.630;11.018;2023-04-19T12:47:35;5.03;;;4.83;;
7231;SDS011;3657;49.630;11.018;2023-04-19T12:50:02;5.00;;;4.80;;
7231;SDS011;3657;49.630;11.018;2023-04-19T12:52:29;5.10;;;4.90;;
7231;SDS011;3657;49.630;11.018;2023-04-19T12:54:55;5.03;;;4.83;;
7231;SDS011;3657;49.630;11.018;2023-04-19T12:57:23;4.30;;;4.10;;
7231;SDS011;3657;49.630;11.018;2023-04-19T12:59:50;5.00;;;4.90;;
7231;SDS011;3657;49.630;11.018;2023-04-19T13:02:17;4.53;;;4.43;;
7231;SDS011;3657;49.630;11.018;2023-04-19T13:04:43;4.80;;;4.50;;
7231;SDS011;3657;49.630;11.018;2023-04-19T13:07:10;4.70;;;4.60;;
7231;SDS011;3657;49.630;11.018;2023-04-19T13:09:36;5.03;;;4.93;;
7231;SDS011;3657;49.630;11.018;2023-04-19T13:12:03;4.60;;;4.50;;
7231;SDS011;3657;49.630;11.018;2023-04-19T13:14:32;4.60;;;4.43;;
7231;SDS011;3657;49.630;11.018;2023-04-19T13:16:58;4.43;;;4.33;;
7231;SDS011;3657;49.630;11.018;2023-04-19T13:19:25;4.43;;;4.33;;
7231;SDS011;3657;49.630;11.018;2023-04-19T13:21:52;4.63;;;4.53;;
7231;SDS011;3657;49.630;11.018;2023-04-19T13:24:19;4.73;;;4.43;;
7231;SDS011;3657;49.630;11.018;2023-04-19T13:26:45;5.47;;;5.23;;
7231;SDS011;3657;49.630;11.018;2023-04-19T13:29:12;5.57;;;5.43;;
7231;SDS011;3657;49.630;11.018;2023-04-19T13:31:40;5.63;;;5.53;;
7231;SDS011;3657;49.630;11.018;2023-04-19T13:34:07;6.00;;;5.73;;
7231;SDS011;3657;49.630;11.018;2023-04-19T13:36:34;6.07;;;5.80;;
7231;SDS011;3657;49.630;11.018;2023-04-19T13:39:01;5.57;;;5.37;;
7231;SDS011;3657;49.630;11.018;2023-04-19T13:41:28;5.93;;;5.43;;
7231;SDS011;3657;49.630;11.018;2023-04-19T13:43:55;6.40;;;6.20;;
7231;SDS011;3657;49.630;11.018;2023-04-19T13:46:21;7.00;;;6.73;;
7231;SDS011;3657;49.630;11.018;2023-04-19T13:48:49;6.70;;;6.50;;
7231;SDS011;3657;49.630;11.018;2023-04-19T13:51:16;6.53;;;6.03;;
7231;SDS011;3657;49.630;11.018;2023-04-19T13:53:43;6.80;;;6.60;;
7231;SDS011;3657;49.630;11.018;2023-04-19T13:56:09;6.83;;;6.63;;
7231;SDS011;3657;49.630;11.018;2023-04-19T13:58:36;6.77;;;6.57;;
7231;SDS011;3657;49.630;11.018;2023-04-19T14:01:03;6.17;;;5.93;;
7231;SDS011;3657;49.630;11.018;2023-04-19T14:03:30;6.20;;;6.00;;
7231;SDS011;3657;49.630;11.018;2023-04-19T14:05:58;6.00;;;5.80;;
7231;SDS011;3657;49.630;11.018;2023-04-19T14:08:24;6.37;;;6.07;;
7231;SDS011;3657;49.630;11.018;2023-04-19T14:10:51;6.13;;;5.80;;
7231;SDS011;3657;49.630;11.018;2023-04-19T14:13:18;6.37;;;6.17;;
7231;SDS011;3657;49.630;11.018;2023-04-19T14:15:44;5.47;;;5.37;;
7231;SDS011;3657;49.630;11.018;2023-04-19T14:18:11;6.10;;;5.90;;
7231;SDS011;3657;49.630;11.018;2023-04-19T14:20:38;5.83;;;5.63;;
7231;SDS011;3657;49.630;11.018;2023-04-19T14:23:06;6.13;;;5.93;;
7231;SDS011;3657;49.630;11.018;2023-04-19T14:25:32;6.30;;;6.00;;
7231;SDS011;3657;49.630;11.018;2023-04-19T14:28:00;5.60;;;5.47;;
7231;SDS011;3657;49.630;11.018;2023-04-19T14:30:27;6.37;;;6.17;;
7231;SDS011;3657;49.630;11.018;2023-04-19T14:32:54;6.63;;;6.30;;
7231;SDS011;3657;49.630;11.018;2023-04-19T14:35:20;6.30;;;6.10;;
7231;SDS011;3657;49.630;11.018;2023-04-19T14:37:47;6.87;;;6.33;;
7231;SDS011;3657;49.630;11.018;2023-04-19T14:40:15;6.07;;;5.87;;
7231;SDS011;3657;49.630;11.018;2023-04-19T14:42:43;6.23;;;5.93;;
7231;SDS011;3657;49.630;11.018;2023-04-19T14:45:10;6.40;;;6.20;;
7231;SDS011;3657;49.630;11.018;2023-04-19T14:47:37;6.57;;;6.10;;